Bashaw, Canada
Current Conditions -  °F | °C
As of 3:00 PM on Wednesday 22 Oct 2014 (Local Time) from CYQF Reporting Station
Broken Clouds Broken Clouds  
Wind Chill: 57°   Ceiling: 18000
Heat Index: 57°   Visibility: 15mi
Dew Point: 32°   Wind: 12mph
Humidity: 38%   Direction: 160°SSE
Pressure: 29.62"   Gusts: 18mph
Location:  52.58°N, 112.97°W
Report Text: CYQF 222100Z 16010G16KT 15SM FEW060 BKN180 14/M00 A2962 RMK CU1AC7 CU TR SLP056 DENSITY ALT 3800FT
Loading
Personal Weather Stations






























Interactive Weather Map
Tropical Storm Tracking
New forecast layout! Learn more

10-Day Weather Forecast

Advertisements
Track Severe Weather on mobile